createdAt,value
2018-12-25T00:01:33.646Z,10.40
2018-12-25T00:04:02.531Z,13.13
2018-12-25T00:06:31.359Z,9.93
2018-12-25T00:09:00.243Z,11.40
2018-12-25T00:11:29.661Z,9.55
2018-12-25T00:13:58.861Z,8.05
2018-12-25T00:16:28.061Z,8.85
2018-12-25T00:18:57.024Z,8.03
2018-12-25T00:21:26.143Z,10.13
2018-12-25T00:23:54.955Z,8.38
2018-12-25T00:26:25.981Z,16.95
2018-12-25T00:29:14.262Z,10.70
2018-12-25T00:32:02.611Z,11.08
2018-12-25T00:34:50.873Z,9.65
2018-12-25T00:37:32.345Z,8.58
2018-12-25T00:40:13.487Z,8.58
2018-12-25T00:42:54.876Z,10.70
2018-12-25T00:45:23.782Z,10.45
2018-12-25T00:48:11.762Z,11.20
2018-12-25T00:50:59.846Z,11.15
2018-12-25T00:53:47.979Z,10.05
2018-12-25T00:56:36.380Z,9.35
2018-12-25T00:59:24.422Z,11.40
2018-12-25T01:02:12.879Z,10.38
2018-12-25T01:04:41.856Z,13.32
2018-12-25T01:10:44.844Z,10.48
2018-12-25T01:13:34.351Z,8.88
2018-12-25T01:16:04.602Z,11.30
2018-12-25T01:18:33.514Z,10.90
2018-12-25T01:21:02.895Z,9.63
2018-12-25T01:23:35.509Z,9.05
2018-12-25T01:26:07.712Z,9.15
2018-12-25T01:28:37.832Z,9.58
2018-12-25T01:31:06.849Z,10.75
2018-12-25T01:33:36.169Z,9.30
2018-12-25T01:36:05.432Z,9.05
2018-12-25T01:38:34.637Z,9.35
2018-12-25T01:41:03.737Z,9.68
2018-12-25T01:43:32.791Z,9.53
2018-12-25T01:46:01.925Z,8.83
2018-12-25T01:48:33.102Z,9.85
2018-12-25T01:51:02.345Z,9.60
2018-12-25T01:53:31.663Z,9.55
2018-12-25T01:56:00.884Z,8.65
2018-12-25T01:58:31.284Z,8.60
2018-12-25T02:01:00.391Z,11.22
2018-12-25T02:03:31.501Z,15.45
2018-12-25T02:06:00.953Z,15.98
2018-12-25T02:08:30.724Z,11.05
2018-12-25T02:11:02.001Z,11.00
2018-12-25T02:13:31.550Z,11.30
2018-12-25T02:16:01.740Z,13.60
2018-12-25T02:18:30.993Z,10.28
2018-12-25T02:21:01.169Z,12.45
2018-12-25T02:23:30.756Z,11.73
2018-12-25T02:26:18.926Z,15.28
2018-12-25T02:29:22.190Z,11.53
2018-12-25T02:31:54.300Z,13.45
2018-12-25T02:34:23.243Z,14.45
2018-12-25T02:36:52.287Z,13.83
2018-12-25T02:39:21.451Z,15.28
2018-12-25T02:42:09.767Z,12.53
2018-12-25T02:44:40.223Z,14.07
2018-12-25T02:47:28.275Z,11.60
2018-12-25T02:49:57.511Z,10.98
2018-12-25T02:52:26.627Z,10.95
2018-12-25T02:55:15.222Z,13.28
2018-12-25T02:58:03.585Z,12.03
2018-12-25T03:00:52.053Z,10.60
2018-12-25T03:03:40.239Z,11.75
2018-12-25T03:06:28.271Z,13.58
2018-12-25T03:09:16.708Z,12.75
2018-12-25T03:12:05.249Z,10.60
2018-12-25T03:14:53.242Z,10.20
2018-12-25T03:17:41.932Z,16.37
2018-12-25T03:20:30.001Z,11.20
2018-12-25T03:23:10.333Z,10.75
2018-12-25T03:25:50.764Z,14.00
2018-12-25T03:28:20.475Z,13.05
2018-12-25T03:31:08.424Z,9.20
2018-12-25T03:33:37.528Z,12.95
2018-12-25T03:36:25.746Z,10.63
2018-12-25T03:39:13.870Z,12.37
2018-12-25T03:41:43.074Z,14.05
2018-12-25T03:44:12.406Z,18.50
2018-12-25T03:46:49.101Z,10.48
2018-12-25T03:49:26.790Z,15.48
2018-12-25T03:52:00.114Z,12.05
2018-12-25T03:54:41.575Z,11.38
2018-12-25T03:57:10.768Z,9.55
2018-12-25T04:02:32.447Z,9.20
2018-12-25T04:05:03.146Z,13.75
2018-12-25T04:07:32.208Z,12.30
2018-12-25T04:10:01.252Z,9.75
2018-12-25T04:12:31.050Z,13.28
2018-12-25T04:15:00.605Z,10.50
2018-12-25T04:17:30.566Z,9.15
2018-12-25T04:19:59.690Z,10.08
2018-12-25T04:22:28.724Z,13.20
2018-12-25T04:24:57.801Z,12.65
2018-12-25T04:27:26.773Z,8.55
2018-12-25T04:29:55.904Z,10.70
2018-12-25T04:32:25.004Z,16.82
2018-12-25T04:34:54.175Z,11.15
2018-12-25T04:37:23.233Z,11.60
2018-12-25T04:39:52.895Z,12.35
2018-12-25T04:42:21.752Z,10.38
2018-12-25T04:44:50.890Z,9.93
2018-12-25T04:47:20.204Z,11.45
2018-12-25T04:49:51.229Z,11.88
2018-12-25T04:52:20.253Z,9.40
2018-12-25T04:54:49.362Z,12.75
2018-12-25T04:57:18.585Z,11.68
2018-12-25T04:59:47.666Z,11.45
2018-12-25T05:02:16.652Z,9.80
2018-12-25T05:04:46.225Z,11.80
2018-12-25T05:07:15.358Z,8.78
2018-12-25T05:09:44.228Z,9.88
2018-12-25T05:12:13.532Z,10.58
2018-12-25T05:14:43.001Z,10.45
2018-12-25T05:17:12.123Z,9.95
2018-12-25T05:19:41.184Z,12.00
2018-12-25T05:22:10.686Z,11.25
2018-12-25T05:24:39.876Z,14.70
2018-12-25T05:27:09.018Z,10.55
2018-12-25T05:29:38.072Z,13.88
2018-12-25T05:32:07.896Z,12.82
2018-12-25T05:34:36.930Z,13.35
2018-12-25T05:37:06.327Z,10.75
2018-12-25T05:39:35.839Z,9.45
2018-12-25T05:42:05.008Z,9.93
2018-12-25T05:44:33.976Z,8.05
2018-12-25T05:47:03.110Z,9.93
2018-12-25T05:49:32.205Z,13.18
2018-12-25T05:52:01.532Z,12.33
2018-12-25T05:54:30.656Z,9.45
2018-12-25T05:56:59.440Z,8.45
2018-12-25T05:59:28.764Z,6.53
2018-12-25T06:01:57.822Z,10.53
2018-12-25T06:04:27.072Z,8.23
2018-12-25T06:06:56.662Z,12.07
2018-12-25T06:09:25.804Z,11.50
2018-12-25T06:11:54.599Z,13.72
2018-12-25T06:14:23.861Z,10.63
2018-12-25T06:16:52.877Z,9.75
2018-12-25T06:19:21.700Z,10.03
2018-12-25T06:21:50.847Z,11.65
2018-12-25T06:24:19.951Z,12.78
2018-12-25T06:26:48.952Z,8.53
2018-12-25T06:29:17.714Z,12.20
2018-12-25T06:31:47.332Z,16.17
2018-12-25T06:34:16.138Z,11.35
2018-12-25T06:36:45.695Z,11.78
2018-12-25T06:39:14.939Z,8.08
2018-12-25T06:41:44.148Z,10.25
2018-12-25T06:44:13.341Z,11.10
2018-12-25T06:46:42.510Z,11.90
2018-12-25T06:49:11.416Z,11.30
2018-12-25T06:51:40.559Z,12.25
2018-12-25T06:54:09.705Z,13.45
2018-12-25T06:56:39.191Z,12.33
2018-12-25T06:59:08.142Z,10.80
2018-12-25T07:01:37.144Z,10.45
2018-12-25T07:04:05.901Z,10.13
2018-12-25T07:06:34.877Z,8.10
2018-12-25T07:09:05.329Z,9.25
2018-12-25T07:11:34.613Z,6.60
2018-12-25T07:14:03.674Z,13.30
2018-12-25T07:16:32.452Z,7.00
2018-12-25T07:19:01.797Z,8.93
2018-12-25T07:21:30.897Z,11.65
2018-12-25T07:24:00.037Z,7.47
2018-12-25T07:26:29.407Z,10.25
2018-12-25T07:28:58.957Z,8.68
2018-12-25T07:31:27.839Z,9.13
2018-12-25T07:33:56.968Z,9.68
2018-12-25T07:36:26.694Z,9.93
2018-12-25T07:38:56.031Z,10.45
2018-12-25T07:41:25.196Z,8.13
2018-12-25T07:43:54.265Z,9.85
2018-12-25T07:46:23.332Z,9.20
2018-12-25T07:48:52.831Z,10.90
2018-12-25T07:51:21.847Z,13.88
2018-12-25T07:53:51.092Z,15.05
2018-12-25T07:56:20.105Z,9.60
2018-12-25T07:58:49.269Z,10.40
2018-12-25T08:01:18.647Z,11.22
2018-12-25T08:03:47.798Z,12.33
2018-12-25T08:06:16.935Z,12.43
2018-12-25T08:08:46.171Z,11.85
2018-12-25T08:11:15.277Z,12.05
2018-12-25T08:13:44.412Z,13.03
2018-12-25T08:16:13.874Z,13.60
2018-12-25T08:18:44.029Z,13.72
2018-12-25T08:21:14.211Z,15.23
2018-12-25T08:23:43.298Z,11.15
2018-12-25T08:26:12.783Z,9.88
2018-12-25T08:28:41.832Z,11.40
2018-12-25T08:31:11.039Z,12.53
2018-12-25T08:33:40.176Z,9.85
2018-12-25T08:36:09.112Z,13.32
2018-12-25T08:38:38.317Z,11.00
2018-12-25T08:41:07.734Z,11.93
2018-12-25T08:43:36.586Z,11.60
2018-12-25T08:46:05.769Z,13.35
2018-12-25T08:48:34.724Z,11.55
2018-12-25T08:51:03.833Z,11.22
2018-12-25T08:53:32.632Z,11.88
2018-12-25T08:56:02.223Z,11.05
2018-12-25T08:58:31.122Z,12.50
2018-12-25T09:01:00.271Z,9.65
2018-12-25T09:03:29.092Z,11.57
2018-12-25T09:05:58.202Z,12.00
2018-12-25T09:08:34.801Z,10.58
2018-12-25T09:10:58.339Z,9.03
2018-12-25T09:13:27.363Z,10.53
2018-12-25T09:15:56.730Z,10.08
2018-12-25T09:18:26.272Z,10.13
2018-12-25T09:20:55.281Z,10.72
2018-12-25T09:23:24.532Z,10.50
2018-12-25T09:25:54.062Z,12.55
2018-12-25T09:28:23.142Z,13.05
2018-12-25T09:30:52.501Z,9.93
2018-12-25T09:33:21.850Z,10.43
2018-12-25T09:35:50.927Z,11.10
2018-12-25T09:38:20.370Z,11.75
2018-12-25T09:40:49.591Z,9.58
2018-12-25T09:43:18.684Z,11.20
2018-12-25T09:45:47.723Z,13.68
2018-12-25T09:48:16.833Z,7.12
2018-12-25T09:50:46.156Z,8.55
2018-12-25T09:53:15.191Z,5.92
2018-12-25T09:55:44.441Z,6.22
2018-12-25T09:58:13.278Z,8.53
2018-12-25T10:00:42.148Z,8.45
2018-12-25T10:03:11.143Z,8.08
2018-12-25T10:05:39.951Z,7.60
2018-12-25T10:08:09.383Z,8.75
2018-12-25T10:10:38.590Z,7.30
2018-12-25T10:13:07.625Z,7.45
2018-12-25T10:15:36.695Z,8.00
2018-12-25T10:18:06.150Z,9.28
2018-12-25T10:20:35.423Z,8.05
2018-12-25T10:23:04.346Z,9.50
2018-12-25T10:25:33.865Z,7.70
2018-12-25T10:28:02.819Z,8.80
2018-12-25T10:30:32.100Z,9.53
2018-12-25T10:33:01.213Z,8.55
2018-12-25T10:35:30.290Z,8.83
2018-12-25T10:37:59.713Z,11.15
2018-12-25T10:40:29.520Z,8.23
2018-12-25T10:42:58.859Z,7.12
2018-12-25T10:45:28.205Z,8.78
2018-12-25T10:47:57.401Z,8.33
2018-12-25T10:50:26.964Z,8.40
2018-12-25T10:52:56.221Z,8.10
2018-12-25T10:55:25.168Z,7.87
2018-12-25T10:57:54.838Z,8.18
2018-12-25T11:00:23.906Z,6.67
2018-12-25T11:03:09.541Z,8.48
2018-12-25T11:05:38.525Z,9.13
2018-12-25T11:08:07.711Z,11.78
2018-12-25T11:10:36.487Z,9.48
2018-12-25T11:13:19.667Z,8.15
2018-12-25T11:15:48.746Z,9.08
2018-12-25T11:18:18.056Z,9.20
2018-12-25T11:20:50.370Z,11.45
2018-12-25T11:23:19.535Z,9.83
2018-12-25T11:26:06.149Z,9.88
2018-12-25T11:28:35.637Z,9.93
2018-12-25T11:31:04.687Z,8.53
2018-12-25T11:33:33.724Z,20.57
2018-12-25T11:36:02.880Z,11.83
2018-12-25T11:38:32.074Z,11.88
2018-12-25T11:41:01.308Z,28.45
2018-12-25T11:43:30.417Z,14.70
2018-12-25T11:45:59.389Z,9.53
2018-12-25T11:48:29.001Z,10.50
2018-12-25T11:50:58.148Z,8.30
2018-12-25T11:53:27.157Z,8.15
2018-12-25T11:55:57.571Z,8.90
2018-12-25T11:58:26.923Z,8.18
2018-12-25T12:00:56.107Z,9.90
2018-12-25T12:03:25.109Z,8.90
2018-12-25T12:05:54.386Z,10.60
2018-12-25T12:08:27.568Z,9.40
2018-12-25T12:11:04.415Z,12.35
2018-12-25T12:13:33.658Z,11.40
2018-12-25T12:16:02.821Z,9.28
2018-12-25T12:18:32.298Z,9.50
2018-12-25T12:21:01.396Z,9.90
2018-12-25T12:23:30.633Z,8.98
2018-12-25T12:26:00.049Z,9.08
2018-12-25T12:28:29.280Z,10.03
2018-12-25T12:30:58.208Z,9.05
2018-12-25T12:33:27.302Z,9.28
2018-12-25T12:35:56.928Z,10.40
2018-12-25T12:38:25.777Z,9.18
2018-12-25T12:40:54.824Z,8.80
2018-12-25T12:43:23.960Z,10.55
2018-12-25T12:45:52.772Z,10.40
2018-12-25T12:48:21.855Z,9.35
2018-12-25T12:50:50.595Z,8.28
2018-12-25T12:53:21.073Z,8.55
2018-12-25T12:55:50.224Z,8.93
2018-12-25T12:58:19.295Z,9.50
2018-12-25T13:00:48.444Z,9.30
2018-12-25T13:03:17.495Z,10.90
2018-12-25T13:05:46.724Z,9.48
2018-12-25T13:08:16.102Z,10.08
2018-12-25T13:10:45.448Z,10.65
2018-12-25T13:13:14.478Z,9.85
2018-12-25T13:15:43.383Z,10.23
2018-12-25T13:18:12.544Z,10.10
2018-12-25T13:20:41.485Z,11.18
2018-12-25T13:23:10.990Z,12.00
2018-12-25T13:25:40.171Z,11.08
2018-12-25T13:28:09.428Z,11.50
2018-12-25T13:30:38.774Z,12.10
2018-12-25T13:33:07.759Z,11.08
2018-12-25T13:35:37.194Z,11.08
2018-12-25T13:38:06.618Z,11.73
2018-12-25T13:40:35.979Z,11.93
2018-12-25T13:43:06.420Z,12.28
2018-12-25T13:45:35.792Z,12.10
2018-12-25T13:48:04.715Z,13.93
2018-12-25T13:50:33.728Z,12.73
2018-12-25T13:53:03.546Z,13.48
2018-12-25T13:55:32.936Z,13.50
2018-12-25T13:58:01.839Z,13.30
2018-12-25T14:00:30.780Z,14.38
2018-12-25T14:03:00.011Z,13.48
2018-12-25T14:05:29.202Z,13.20
2018-12-25T14:07:58.232Z,13.55
2018-12-25T14:10:27.513Z,12.45
2018-12-25T14:12:56.922Z,10.93
2018-12-25T14:15:29.956Z,16.37
2018-12-25T14:17:59.534Z,14.58
2018-12-25T14:20:28.505Z,13.90
2018-12-25T14:22:58.233Z,14.18
2018-12-25T14:25:27.238Z,13.45
2018-12-25T14:27:56.895Z,13.40
2018-12-25T14:30:25.825Z,12.90
2018-12-25T14:32:55.120Z,15.48
2018-12-25T14:35:24.133Z,14.30
2018-12-25T14:37:53.034Z,14.38
2018-12-25T14:40:21.784Z,14.00
2018-12-25T14:42:50.880Z,13.80
2018-12-25T14:45:19.753Z,11.60
2018-12-25T14:47:48.931Z,12.75
2018-12-25T14:50:18.127Z,12.35
2018-12-25T14:52:47.370Z,12.15
2018-12-25T14:55:16.536Z,13.03
2018-12-25T14:57:45.945Z,12.80
2018-12-25T15:00:15.171Z,15.48
2018-12-25T15:02:45.793Z,14.75
2018-12-25T15:05:14.833Z,11.80
2018-12-25T15:07:43.670Z,11.95
2018-12-25T15:10:12.863Z,10.95
2018-12-25T15:12:41.691Z,14.38
2018-12-25T15:15:10.702Z,12.55
2018-12-25T15:17:39.993Z,11.95
2018-12-25T15:20:09.135Z,13.18
2018-12-25T15:22:40.559Z,13.48
2018-12-25T15:25:09.129Z,13.95
2018-12-25T15:27:38.263Z,15.03
2018-12-25T15:30:08.040Z,12.30
2018-12-25T15:32:36.864Z,12.58
2018-12-25T15:35:09.534Z,14.53
2018-12-25T15:37:38.586Z,13.48
2018-12-25T15:40:08.663Z,13.20
2018-12-25T15:42:37.668Z,14.30
2018-12-25T15:45:08.420Z,14.68
2018-12-25T15:47:37.913Z,14.28
2018-12-25T15:50:07.752Z,13.50
2018-12-25T15:52:36.930Z,14.35
2018-12-25T15:55:07.458Z,11.88
2018-12-25T15:57:36.639Z,12.15
2018-12-25T16:00:09.575Z,15.32
2018-12-25T16:02:38.634Z,14.58
2018-12-25T16:05:07.825Z,13.90
2018-12-25T16:07:37.107Z,17.73
2018-12-25T16:10:06.150Z,13.70
2018-12-25T16:12:35.348Z,14.90
2018-12-25T16:15:04.299Z,16.85
2018-12-25T16:17:33.086Z,13.70
2018-12-25T16:20:02.395Z,13.85
2018-12-25T16:22:31.577Z,14.98
2018-12-25T16:25:01.831Z,13.75
2018-12-25T16:27:33.398Z,15.15
2018-12-25T16:30:04.411Z,13.72
2018-12-25T16:32:33.597Z,13.08
2018-12-25T16:35:04.065Z,15.10
2018-12-25T16:37:35.117Z,14.90
2018-12-25T16:40:06.576Z,12.20
2018-12-25T16:42:35.911Z,12.00
2018-12-25T16:45:04.951Z,13.28
2018-12-25T16:47:33.914Z,12.10
2018-12-25T16:50:03.032Z,11.60
2018-12-25T16:52:32.188Z,12.55
2018-12-25T16:55:01.190Z,11.93
2018-12-25T16:57:30.957Z,13.43
2018-12-25T16:59:59.686Z,12.05
2018-12-25T17:02:28.865Z,11.53
2018-12-25T17:04:57.714Z,14.00
2018-12-25T17:07:26.565Z,11.33
2018-12-25T17:09:55.587Z,9.93
2018-12-25T17:12:24.731Z,10.48
2018-12-25T17:14:53.994Z,13.08
2018-12-25T17:17:22.974Z,9.78
2018-12-25T17:19:52.091Z,12.00
2018-12-25T17:22:21.607Z,12.90
2018-12-25T17:24:50.834Z,11.40
2018-12-25T17:27:19.741Z,10.70
2018-12-25T17:29:48.881Z,12.35
2018-12-25T17:32:18.272Z,10.05
2018-12-25T17:34:47.061Z,9.15
2018-12-25T17:37:16.638Z,10.10
2018-12-25T17:39:45.981Z,11.10
2018-12-25T17:42:14.823Z,8.90
2018-12-25T17:44:44.484Z,10.35
2018-12-25T17:47:13.566Z,10.48
2018-12-25T17:49:45.134Z,9.18
2018-12-25T17:52:14.715Z,11.10
2018-12-25T17:54:43.569Z,9.78
2018-12-25T17:57:13.104Z,10.25
2018-12-25T17:59:42.146Z,9.23
2018-12-25T18:02:11.095Z,12.85
2018-12-25T18:04:40.256Z,11.60
2018-12-25T18:07:09.188Z,11.12
2018-12-25T18:09:38.384Z,10.45
2018-12-25T18:12:07.532Z,11.08
2018-12-25T18:14:36.724Z,11.38
2018-12-25T18:17:05.983Z,11.95
2018-12-25T18:19:35.129Z,11.12
2018-12-25T18:22:04.274Z,12.03
2018-12-25T18:24:33.652Z,8.80
2018-12-25T18:27:03.172Z,11.33
2018-12-25T18:29:32.030Z,10.85
2018-12-25T18:32:01.843Z,9.78
2018-12-25T18:34:31.025Z,9.75
2018-12-25T18:37:00.319Z,9.55
2018-12-25T18:39:29.581Z,9.83
2018-12-25T18:41:58.823Z,9.75
2018-12-25T18:44:27.907Z,11.18
2018-12-25T18:46:57.050Z,17.40
2018-12-25T18:49:26.291Z,9.05
2018-12-25T18:51:55.275Z,10.55
2018-12-25T18:54:27.894Z,13.75
2018-12-25T18:56:55.351Z,11.97
2018-12-25T18:59:24.421Z,12.65
2018-12-25T19:01:53.814Z,11.70
2018-12-25T19:04:22.870Z,11.97
2018-12-25T19:06:51.757Z,14.63
2018-12-25T19:09:20.847Z,11.68
2018-12-25T19:11:50.872Z,9.00
2018-12-25T19:14:20.070Z,10.75
2018-12-25T19:16:51.557Z,8.38
2018-12-25T19:19:20.626Z,13.90
2018-12-25T19:21:49.409Z,10.28
2018-12-25T19:24:18.941Z,11.03
2018-12-25T19:26:48.519Z,14.68
2018-12-25T19:29:17.976Z,14.23
2018-12-25T19:31:47.216Z,12.55
2018-12-25T19:34:16.006Z,14.03
2018-12-25T19:36:45.129Z,13.13
2018-12-25T19:39:15.849Z,11.68
2018-12-25T19:41:44.667Z,13.83
2018-12-25T19:44:13.963Z,19.75
2018-12-25T19:46:42.955Z,15.98
2018-12-25T19:49:12.377Z,14.05
2018-12-25T19:51:41.398Z,13.35
2018-12-25T19:54:10.596Z,13.10
2018-12-25T19:56:39.644Z,12.15
2018-12-25T19:59:08.767Z,13.60
2018-12-25T20:01:37.799Z,14.05
2018-12-25T20:05:03.243Z,12.95
2018-12-25T20:08:24.152Z,13.62
2018-12-25T20:11:29.465Z,13.75
2018-12-25T20:14:39.779Z,14.07
2018-12-25T20:17:50.743Z,12.75
2018-12-25T20:20:55.384Z,14.43
2018-12-25T20:23:55.104Z,13.30
2018-12-25T20:27:08.654Z,12.65
2018-12-25T20:30:14.852Z,12.63
2018-12-25T20:33:23.542Z,14.73
2018-12-25T20:36:34.266Z,13.10
2018-12-25T20:39:55.718Z,12.30
2018-12-25T20:43:20.984Z,13.00
2018-12-25T20:46:42.964Z,12.63
2018-12-25T20:50:04.159Z,12.07
2018-12-25T20:53:20.548Z,14.35
2018-12-25T20:56:38.405Z,11.88
2018-12-25T20:59:43.559Z,12.03
2018-12-25T21:02:48.701Z,11.95
2018-12-25T21:05:54.504Z,14.47
2018-12-25T21:09:02.482Z,10.68
2018-12-25T21:11:56.873Z,13.40
2018-12-25T21:14:47.987Z,8.88
2018-12-25T21:17:47.664Z,12.63
2018-12-25T21:20:43.907Z,9.28
2018-12-25T21:23:48.770Z,10.35
2018-12-25T21:26:53.874Z,13.78
2018-12-25T21:29:23.106Z,13.80
2018-12-25T21:31:52.418Z,11.53
2018-12-25T21:34:21.458Z,15.45
2018-12-25T21:36:50.992Z,13.85
2018-12-25T21:39:21.042Z,15.50
2018-12-25T21:41:50.468Z,16.02
2018-12-25T21:44:19.562Z,16.20
2018-12-25T21:46:48.964Z,17.20
2018-12-25T21:49:18.131Z,18.90
2018-12-25T21:51:49.392Z,16.35
2018-12-25T21:54:18.397Z,19.35
2018-12-25T21:56:47.827Z,16.10
2018-12-25T21:59:18.403Z,21.00
2018-12-25T22:01:47.397Z,19.92
2018-12-25T22:04:16.881Z,23.05
2018-12-25T22:06:45.995Z,21.60
2018-12-25T22:09:15.269Z,24.27
2018-12-25T22:11:45.395Z,29.15
2018-12-25T22:14:14.696Z,30.27
2018-12-25T22:16:45.098Z,23.75
2018-12-25T22:19:14.161Z,28.90
2018-12-25T22:21:44.294Z,20.80
2018-12-25T22:24:13.561Z,20.50
2018-12-25T22:26:42.975Z,19.48
2018-12-25T22:29:14.592Z,19.48
2018-12-25T22:31:46.087Z,19.23
2018-12-25T22:34:15.626Z,20.80
2018-12-25T22:36:44.609Z,23.38
2018-12-25T22:39:13.416Z,20.30
2018-12-25T22:41:42.370Z,23.92
2018-12-25T22:44:11.334Z,20.95
2018-12-25T22:46:40.448Z,22.95
2018-12-25T22:49:10.831Z,20.17
2018-12-25T22:51:40.704Z,17.52
2018-12-25T22:54:11.787Z,17.20
2018-12-25T22:56:42.074Z,22.00
2018-12-25T22:59:11.925Z,20.12
2018-12-25T23:01:44.337Z,19.87
2018-12-25T23:04:13.872Z,14.10
2018-12-25T23:06:43.340Z,14.98
2018-12-25T23:09:12.464Z,19.80
2018-12-25T23:11:43.743Z,23.00
2018-12-25T23:14:12.667Z,14.18
2018-12-25T23:16:42.382Z,14.70
2018-12-25T23:19:11.475Z,18.80
2018-12-25T23:21:40.882Z,16.82
2018-12-25T23:26:57.736Z,15.63
2018-12-25T23:29:27.861Z,17.12
2018-12-25T23:32:02.249Z,20.35
2018-12-25T23:34:33.607Z,17.85
2018-12-25T23:37:03.178Z,18.85
2018-12-25T23:39:33.745Z,21.10
2018-12-25T23:42:02.914Z,19.55
2018-12-25T23:47:22.383Z,17.62
2018-12-25T23:49:51.543Z,19.10
2018-12-25T23:52:21.169Z,17.80
2018-12-25T23:54:50.238Z,20.97
2018-12-25T23:57:19.169Z,18.42
2018-12-25T23:59:50.848Z,19.62
